Airways and Terminal Forecast

Significant Meteorological Information

WSPH31 RPLL 200820 
RPHI SIGMET E09 VALID 200820/201220 RPLL-
RPHI MANILA FIR EMBD TS OBS WI N0937 E12400 - N0914 E12602 - N0703 E12534 - N0553 E12341 - N0818 E12218 - N0937 E12400 TOP FL530 MOV WSW 15KT NC=

 

WSPH31 RPLL 200725 
RPHI SIGMET D08 VALID 200728/200900 RPLL-
RPHI MANILA FIR EMBD TS OBS WI N2006 E12345 - N1732 E12413 - N1639 E12243 - N1407 E12255 - N1001 E11745 - N1240 E11640 - N2006 E12345 TOP FL550 MOV WNW 15KT NC=

 

WSPH31 RPLL 200710 
RPHI SIGMET C07 VALID 200710/201110 RPLL-
RPHI MANILA FIR EMBD TS OBS WI N1807 E13000 - N1448 E13000 - N1339 E12647 - N1639 E12712 - N1759 E12407 - N1934 E12357 - N1807 E13000 TOP FL550 MOV WNW 15KT NC=

 

WSPH31 RPLL 200645
RPHI SIGMET B06 VALID 200649/201049 RPLL-
RPHI MANILA FIR EMBD TS OBS WI N0605 E12033 - N0500 E11917 - N0730 E11730 - N0740 E11718 - N0845 E11929 - N0605 E12033 TOP FL520 MOV WSW 25KT NC=

 

WCPH31 RPLL 200245
RPHI SIGMET 1 VALID 200300/200900 RPLL-
RPHI MANILA FIR TC SAUDEL PSN N1536 E12442 CB OBS AT 0000Z WI 200KM
OF TC CENTRE TOP FL540 INTSF FCST AT 0900Z TC CENTRE PSN N1547 E12232=

 

 

 

 

 

Terminal Aerodrome Forecast

TAF RPLL

200500Z 2006/2112 32006KT 9999 FEW023 BKN100 TX29/2006Z TN25/2022Z TEMPO 2006/2012 24014KT 6000 RA SCT022 OVC080 TEMPO 2012/2018 22012G22KT 5000 +RA SCT020 OVC080=

TAF RPVM

200500Z 2006/2112 22008KT 9999 FEW020 BKN100 TEMPO 2006/2012 22012KT 9000 SHRA FEW018CB FEW020 OVC100 TEMPO 2012/2018 22010KT -SHRA FEW018CB FEW020 BKN100=

TAF RPLC

200500Z 2006/2112 36006KT 9999 SCT020 BKN100 TX30/2006Z TN23/2022Z TEMPO 2006/2012 32010KT 6000 -TSRA FEW015CB SCT020 OVC100=

TAF RPLB

200500z 2006/2106 07008KT 9999 FEW020 SCT080 BKN300 TX30/2006Z TN25/2021Z TEMPO 2006/2012 34010KT 8000 -RA SCT020 OVC080=

TAF RPLI

200500Z 2006/2106 04014KT 9999 FEW018 BKN100 TEMPO 2006/2012 04015G25KT 6000 RA SCT018 OVC080 TEMPO 2012/2018 03022G32KT 4000 +RA SCT018 OVC070=

TAF RPVP

200500Z 2006/2106 25006KT 9999 FEW019 BKN080 TEMPO 2006/2012 32009KT 8000 -TSRA FEW017CB SCT019 OVC080=

TAF RPVD

200500Z 2006/2106 22006KT 9999 FEW015 SCT070 BKN220 TEMPO 2006/2012 24012KT 7000 -TSRA FEW014CB SCT015 OVC070=

TAF RPMR

200500Z 2006/2106 18006KT 9999 FEW020 BKN080 TEMPO 2006/2012 22012KT 7000 -TSRA FEW016CB OVC080=

TAF RPMD

200500Z 2006/2106 19007KT 9999 FEW016 SCT090 BKN260 TEMPO 2006/2012 16012KT 8000 -SHRA FEW015CB SCT016 OVC090=

TAF RPMZ

200500Z 2006/2106 25006KT 9999 FEW017 BKN080 TEMPO 2006/2012 24012KT 7000 TSRA FEW016CB SCT017 OVC080=

 

                                                           RPLL FORECAST TAKE-OFF CONDITION

TIME

(UTC)

WIND

(dddffKT)

TEMP

(°C)

QNH

(hPa)

TIME

(UTC)

WIND

(dddffKT)

TEMP

(°C)

QNH

(hPa)

0600

26008KT

29.0

1005.0

1000

24012KT

26.0

1004.0

0700

25010KT

29.0

1004.0

1100

24014KT

26.0

1004.0

0800

24009KT

27.0

1004.0

1200

25010KT

26.0

1003.0

0900

24011KT

27.0

1004.0

1300

24012KT

25.0

1003.0

 

ISSUED AT NAIA AMSS-WD/PAGASA-DOST FOR 0500UTC 20 OCTOBER 2020

PREPARED BY:  CRSED                                                                                                         

CHECKED BY:    SSDH